sensor_id;sensor_type;location;lat;lon;timestamp;P1;durP1;ratioP1;P2;durP2;ratioP2
66327;SDS011;53133;52.862;6.602;2023-05-01T00:00:00;7.72;;;4.20;;
66327;SDS011;53133;52.862;6.602;2023-05-01T00:02:28;7.18;;;3.65;;
66327;SDS011;53133;52.862;6.602;2023-05-01T00:04:54;8.30;;;4.13;;
66327;SDS011;53133;52.862;6.602;2023-05-01T00:07:20;5.40;;;3.63;;
66327;SDS011;53133;52.862;6.602;2023-05-01T00:09:46;6.22;;;3.80;;
66327;SDS011;53133;52.862;6.602;2023-05-01T00:12:12;6.93;;;3.60;;
66327;SDS011;53133;52.862;6.602;2023-05-01T00:14:38;6.30;;;4.10;;
66327;SDS011;53133;52.862;6.602;2023-05-01T00:17:03;11.07;;;4.50;;
66327;SDS011;53133;52.862;6.602;2023-05-01T00:19:29;5.78;;;4.13;;
66327;SDS011;53133;52.862;6.602;2023-05-01T00:21:55;10.85;;;4.18;;
66327;SDS011;53133;52.862;6.602;2023-05-01T00:24:20;8.05;;;4.18;;
66327;SDS011;53133;52.862;6.602;2023-05-01T00:26:46;5.45;;;3.53;;
66327;SDS011;53133;52.862;6.602;2023-05-01T00:29:12;6.63;;;3.90;;
66327;SDS011;53133;52.862;6.602;2023-05-01T00:31:37;7.25;;;4.32;;
66327;SDS011;53133;52.862;6.602;2023-05-01T00:34:05;8.57;;;4.20;;
66327;SDS011;53133;52.862;6.602;2023-05-01T00:36:31;6.13;;;4.30;;
66327;SDS011;53133;52.862;6.602;2023-05-01T00:38:56;7.57;;;4.00;;
66327;SDS011;53133;52.862;6.602;2023-05-01T00:41:22;7.38;;;4.13;;
66327;SDS011;53133;52.862;6.602;2023-05-01T00:43:48;5.90;;;3.80;;
66327;SDS011;53133;52.862;6.602;2023-05-01T00:46:13;6.18;;;4.43;;
66327;SDS011;53133;52.862;6.602;2023-05-01T00:48:39;7.72;;;4.38;;
66327;SDS011;53133;52.862;6.602;2023-05-01T00:51:04;6.82;;;4.22;;
66327;SDS011;53133;52.862;6.602;2023-05-01T00:53:32;7.60;;;4.28;;
66327;SDS011;53133;52.862;6.602;2023-05-01T00:55:57;8.98;;;4.45;;
66327;SDS011;53133;52.862;6.602;2023-05-01T00:58:25;8.18;;;4.47;;
66327;SDS011;53133;52.862;6.602;2023-05-01T01:00:51;6.18;;;4.15;;
66327;SDS011;53133;52.862;6.602;2023-05-01T01:03:17;6.32;;;4.20;;
66327;SDS011;53133;52.862;6.602;2023-05-01T01:05:49;8.13;;;4.68;;
66327;SDS011;53133;52.862;6.602;2023-05-01T01:08:28;8.07;;;4.35;;
66327;SDS011;53133;52.862;6.602;2023-05-01T01:14:05;9.75;;;5.20;;
66327;SDS011;53133;52.862;6.602;2023-05-01T01:16:47;8.35;;;4.93;;
66327;SDS011;53133;52.862;6.602;2023-05-01T01:19:35;10.30;;;4.90;;
66327;SDS011;53133;52.862;6.602;2023-05-01T01:22:18;7.60;;;4.53;;
66327;SDS011;53133;52.862;6.602;2023-05-01T01:24:50;8.05;;;5.25;;
66327;SDS011;53133;52.862;6.602;2023-05-01T01:27:51;7.65;;;4.85;;
66327;SDS011;53133;52.862;6.602;2023-05-01T01:35:55;8.32;;;4.95;;
66327;SDS011;53133;52.862;6.602;2023-05-01T01:38:23;7.10;;;5.00;;
66327;SDS011;53133;52.862;6.602;2023-05-01T01:40:56;8.18;;;5.38;;
66327;SDS011;53133;52.862;6.602;2023-05-01T01:43:25;8.25;;;5.28;;
66327;SDS011;53133;52.862;6.602;2023-05-01T01:46:01;8.13;;;5.40;;
66327;SDS011;53133;52.862;6.602;2023-05-01T01:48:33;6.30;;;4.88;;
66327;SDS011;53133;52.862;6.602;2023-05-01T01:51:04;9.40;;;5.03;;
66327;SDS011;53133;52.862;6.602;2023-05-01T01:53:33;9.15;;;6.00;;
66327;SDS011;53133;52.862;6.602;2023-05-01T01:56:02;8.50;;;5.32;;
66327;SDS011;53133;52.862;6.602;2023-05-01T01:58:30;7.20;;;4.85;;
66327;SDS011;53133;52.862;6.602;2023-05-01T02:00:56;9.18;;;5.03;;
66327;SDS011;53133;52.862;6.602;2023-05-01T02:03:23;9.50;;;5.63;;
66327;SDS011;53133;52.862;6.602;2023-05-01T02:05:50;8.10;;;5.45;;
66327;SDS011;53133;52.862;6.602;2023-05-01T02:08:18;8.70;;;5.40;;
66327;SDS011;53133;52.862;6.602;2023-05-01T02:10:48;8.55;;;5.38;;
66327;SDS011;53133;52.862;6.602;2023-05-01T02:13:15;11.38;;;5.30;;
66327;SDS011;53133;52.862;6.602;2023-05-01T02:15:42;8.30;;;5.55;;
66327;SDS011;53133;52.862;6.602;2023-05-01T02:18:09;10.07;;;5.30;;
66327;SDS011;53133;52.862;6.602;2023-05-01T02:20:36;8.20;;;5.18;;
66327;SDS011;53133;52.862;6.602;2023-05-01T02:23:02;7.45;;;4.75;;
66327;SDS011;53133;52.862;6.602;2023-05-01T02:25:30;11.07;;;5.50;;
66327;SDS011;53133;52.862;6.602;2023-05-01T02:27:59;12.35;;;5.40;;
66327;SDS011;53133;52.862;6.602;2023-05-01T02:30:27;7.65;;;5.53;;
66327;SDS011;53133;52.862;6.602;2023-05-01T02:32:53;8.52;;;5.63;;
66327;SDS011;53133;52.862;6.602;2023-05-01T02:35:18;7.75;;;5.22;;
66327;SDS011;53133;52.862;6.602;2023-05-01T02:37:44;6.93;;;5.13;;
66327;SDS011;53133;52.862;6.602;2023-05-01T02:40:13;7.93;;;5.47;;
66327;SDS011;53133;52.862;6.602;2023-05-01T02:42:40;7.72;;;5.60;;
66327;SDS011;53133;52.862;6.602;2023-05-01T02:45:13;9.40;;;5.80;;
66327;SDS011;53133;52.862;6.602;2023-05-01T02:47:45;8.48;;;6.00;;
66327;SDS011;53133;52.862;6.602;2023-05-01T02:50:18;9.73;;;5.70;;
66327;SDS011;53133;52.862;6.602;2023-05-01T02:52:46;9.55;;;5.20;;
66327;SDS011;53133;52.862;6.602;2023-05-01T02:55:12;10.15;;;5.68;;
66327;SDS011;53133;52.862;6.602;2023-05-01T02:57:38;9.00;;;6.00;;
66327;SDS011;53133;52.862;6.602;2023-05-01T03:00:05;10.57;;;6.05;;
66327;SDS011;53133;52.862;6.602;2023-05-01T03:02:33;9.95;;;5.32;;
66327;SDS011;53133;52.862;6.602;2023-05-01T03:04:59;9.35;;;5.70;;
66327;SDS011;53133;52.862;6.602;2023-05-01T03:07:24;9.80;;;6.15;;
66327;SDS011;53133;52.862;6.602;2023-05-01T03:09:50;10.70;;;5.88;;
66327;SDS011;53133;52.862;6.602;2023-05-01T03:12:15;10.95;;;5.57;;
66327;SDS011;53133;52.862;6.602;2023-05-01T03:14:41;7.75;;;5.18;;
66327;SDS011;53133;52.862;6.602;2023-05-01T03:17:06;8.88;;;5.88;;
66327;SDS011;53133;52.862;6.602;2023-05-01T03:19:32;12.15;;;6.22;;
66327;SDS011;53133;52.862;6.602;2023-05-01T03:21:58;8.90;;;5.45;;
66327;SDS011;53133;52.862;6.602;2023-05-01T03:24:24;11.57;;;6.50;;
66327;SDS011;53133;52.862;6.602;2023-05-01T03:26:49;7.68;;;5.43;;
66327;SDS011;53133;52.862;6.602;2023-05-01T03:29:15;11.45;;;6.22;;
66327;SDS011;53133;52.862;6.602;2023-05-01T03:31:40;11.73;;;6.68;;
66327;SDS011;53133;52.862;6.602;2023-05-01T03:34:06;12.40;;;6.55;;
66327;SDS011;53133;52.862;6.602;2023-05-01T03:36:32;14.82;;;6.30;;
66327;SDS011;53133;52.862;6.602;2023-05-01T03:38:57;10.13;;;6.13;;
66327;SDS011;53133;52.862;6.602;2023-05-01T03:41:23;9.32;;;6.40;;
66327;SDS011;53133;52.862;6.602;2023-05-01T03:43:49;11.70;;;6.55;;
66327;SDS011;53133;52.862;6.602;2023-05-01T03:46:15;10.65;;;6.55;;
66327;SDS011;53133;52.862;6.602;2023-05-01T03:48:40;10.82;;;6.65;;
66327;SDS011;53133;52.862;6.602;2023-05-01T03:51:06;9.88;;;6.68;;
66327;SDS011;53133;52.862;6.602;2023-05-01T03:53:31;8.75;;;5.63;;
66327;SDS011;53133;52.862;6.602;2023-05-01T03:55:57;9.98;;;5.75;;
66327;SDS011;53133;52.862;6.602;2023-05-01T03:58:22;13.07;;;5.80;;
66327;SDS011;53133;52.862;6.602;2023-05-01T04:00:48;10.75;;;6.15;;
66327;SDS011;53133;52.862;6.602;2023-05-01T04:03:15;10.77;;;6.07;;
66327;SDS011;53133;52.862;6.602;2023-05-01T04:05:40;10.57;;;6.18;;
66327;SDS011;53133;52.862;6.602;2023-05-01T04:08:06;10.15;;;6.55;;
66327;SDS011;53133;52.862;6.602;2023-05-01T04:10:32;9.40;;;5.63;;
66327;SDS011;53133;52.862;6.602;2023-05-01T04:12:58;9.15;;;6.10;;
66327;SDS011;53133;52.862;6.602;2023-05-01T04:15:24;10.60;;;6.15;;
66327;SDS011;53133;52.862;6.602;2023-05-01T04:17:49;8.88;;;6.25;;
66327;SDS011;53133;52.862;6.602;2023-05-01T04:20:15;13.80;;;6.13;;
66327;SDS011;53133;52.862;6.602;2023-05-01T04:22:43;8.30;;;5.95;;
66327;SDS011;53133;52.862;6.602;2023-05-01T04:25:08;10.32;;;6.32;;
66327;SDS011;53133;52.862;6.602;2023-05-01T04:27:34;9.38;;;6.53;;
66327;SDS011;53133;52.862;6.602;2023-05-01T04:30:00;10.52;;;6.70;;
66327;SDS011;53133;52.862;6.602;2023-05-01T04:32:26;10.57;;;6.35;;
66327;SDS011;53133;52.862;6.602;2023-05-01T04:34:51;10.95;;;6.90;;
66327;SDS011;53133;52.862;6.602;2023-05-01T04:37:17;11.70;;;6.75;;
66327;SDS011;53133;52.862;6.602;2023-05-01T04:39:43;10.80;;;6.68;;
66327;SDS011;53133;52.862;6.602;2023-05-01T04:42:08;9.93;;;6.38;;
66327;SDS011;53133;52.862;6.602;2023-05-01T04:44:34;11.68;;;6.22;;
66327;SDS011;53133;52.862;6.602;2023-05-01T04:47:01;9.45;;;6.78;;
66327;SDS011;53133;52.862;6.602;2023-05-01T04:49:28;12.50;;;6.80;;
66327;SDS011;53133;52.862;6.602;2023-05-01T04:51:54;13.57;;;7.22;;
66327;SDS011;53133;52.862;6.602;2023-05-01T04:54:19;14.13;;;7.18;;
66327;SDS011;53133;52.862;6.602;2023-05-01T04:56:45;12.70;;;7.50;;
66327;SDS011;53133;52.862;6.602;2023-05-01T04:59:10;11.13;;;7.03;;
66327;SDS011;53133;52.862;6.602;2023-05-01T05:01:36;12.27;;;7.63;;
66327;SDS011;53133;52.862;6.602;2023-05-01T05:04:02;10.02;;;6.53;;
66327;SDS011;53133;52.862;6.602;2023-05-01T05:06:27;12.90;;;6.53;;
66327;SDS011;53133;52.862;6.602;2023-05-01T05:08:53;11.07;;;7.07;;
66327;SDS011;53133;52.862;6.602;2023-05-01T05:11:19;12.93;;;7.68;;
66327;SDS011;53133;52.862;6.602;2023-05-01T05:13:45;10.13;;;6.78;;
66327;SDS011;53133;52.862;6.602;2023-05-01T05:16:11;12.75;;;7.97;;
66327;SDS011;53133;52.862;6.602;2023-05-01T05:18:37;12.48;;;7.20;;
66327;SDS011;53133;52.862;6.602;2023-05-01T05:21:05;13.38;;;7.35;;
66327;SDS011;53133;52.862;6.602;2023-05-01T05:23:32;12.15;;;7.13;;
66327;SDS011;53133;52.862;6.602;2023-05-01T05:25:58;11.15;;;6.88;;
66327;SDS011;53133;52.862;6.602;2023-05-01T05:28:25;13.30;;;7.40;;
66327;SDS011;53133;52.862;6.602;2023-05-01T05:30:52;11.95;;;6.97;;
66327;SDS011;53133;52.862;6.602;2023-05-01T05:33:18;14.27;;;7.47;;
66327;SDS011;53133;52.862;6.602;2023-05-01T05:35:43;13.20;;;8.05;;
66327;SDS011;53133;52.862;6.602;2023-05-01T05:38:09;14.77;;;7.47;;
66327;SDS011;53133;52.862;6.602;2023-05-01T05:40:35;15.40;;;7.55;;
66327;SDS011;53133;52.862;6.602;2023-05-01T05:43:00;12.73;;;7.53;;
66327;SDS011;53133;52.862;6.602;2023-05-01T05:45:26;13.15;;;7.47;;
66327;SDS011;53133;52.862;6.602;2023-05-01T05:47:51;12.15;;;7.30;;
66327;SDS011;53133;52.862;6.602;2023-05-01T05:50:17;17.77;;;8.00;;
66327;SDS011;53133;52.862;6.602;2023-05-01T05:52:42;13.52;;;7.88;;
66327;SDS011;53133;52.862;6.602;2023-05-01T05:55:08;13.23;;;7.43;;
66327;SDS011;53133;52.862;6.602;2023-05-01T05:57:34;13.95;;;7.30;;
66327;SDS011;53133;52.862;6.602;2023-05-01T06:00:02;13.77;;;6.78;;
66327;SDS011;53133;52.862;6.602;2023-05-01T06:02:29;12.55;;;7.43;;
66327;SDS011;53133;52.862;6.602;2023-05-01T06:04:55;14.07;;;7.35;;
66327;SDS011;53133;52.862;6.602;2023-05-01T06:07:22;10.77;;;7.07;;
66327;SDS011;53133;52.862;6.602;2023-05-01T06:09:48;11.48;;;6.88;;
66327;SDS011;53133;52.862;6.602;2023-05-01T06:12:13;11.93;;;6.78;;
66327;SDS011;53133;52.862;6.602;2023-05-01T06:14:40;12.65;;;7.20;;
66327;SDS011;53133;52.862;6.602;2023-05-01T06:17:06;15.50;;;7.25;;
66327;SDS011;53133;52.862;6.602;2023-05-01T06:19:32;13.38;;;8.70;;
66327;SDS011;53133;52.862;6.602;2023-05-01T06:21:57;15.50;;;7.90;;
66327;SDS011;53133;52.862;6.602;2023-05-01T06:24:23;14.30;;;7.32;;
66327;SDS011;53133;52.862;6.602;2023-05-01T06:26:49;13.20;;;7.38;;
66327;SDS011;53133;52.862;6.602;2023-05-01T06:29:14;10.77;;;7.03;;
66327;SDS011;53133;52.862;6.602;2023-05-01T06:31:40;14.02;;;6.97;;
66327;SDS011;53133;52.862;6.602;2023-05-01T06:34:06;15.85;;;8.07;;
66327;SDS011;53133;52.862;6.602;2023-05-01T06:36:31;15.48;;;7.57;;
66327;SDS011;53133;52.862;6.602;2023-05-01T06:38:57;11.77;;;6.55;;
66327;SDS011;53133;52.862;6.602;2023-05-01T06:41:22;12.20;;;7.30;;
66327;SDS011;53133;52.862;6.602;2023-05-01T06:43:49;12.93;;;6.90;;
66327;SDS011;53133;52.862;6.602;2023-05-01T06:46:15;14.65;;;7.22;;
66327;SDS011;53133;52.862;6.602;2023-05-01T06:48:41;12.35;;;6.50;;
66327;SDS011;53133;52.862;6.602;2023-05-01T06:51:06;13.10;;;6.65;;
66327;SDS011;53133;52.862;6.602;2023-05-01T06:53:32;15.68;;;6.40;;
66327;SDS011;53133;52.862;6.602;2023-05-01T06:55:58;11.55;;;6.63;;
66327;SDS011;53133;52.862;6.602;2023-05-01T06:58:23;10.57;;;6.45;;
66327;SDS011;53133;52.862;6.602;2023-05-01T07:00:49;11.07;;;6.13;;
66327;SDS011;53133;52.862;6.602;2023-05-01T07:03:15;11.55;;;5.57;;
66327;SDS011;53133;52.862;6.602;2023-05-01T07:05:40;9.75;;;5.10;;
66327;SDS011;53133;52.862;6.602;2023-05-01T07:08:06;12.65;;;5.07;;
66327;SDS011;53133;52.862;6.602;2023-05-01T07:10:33;10.32;;;5.25;;
66327;SDS011;53133;52.862;6.602;2023-05-01T07:12:59;11.95;;;5.40;;
66327;SDS011;53133;52.862;6.602;2023-05-01T07:15:24;9.63;;;5.32;;
66327;SDS011;53133;52.862;6.602;2023-05-01T07:17:50;16.58;;;6.18;;
66327;SDS011;53133;52.862;6.602;2023-05-01T07:20:16;14.95;;;6.57;;
66327;SDS011;53133;52.862;6.602;2023-05-01T07:22:42;12.02;;;5.47;;
66327;SDS011;53133;52.862;6.602;2023-05-01T07:25:08;10.68;;;6.20;;
66327;SDS011;53133;52.862;6.602;2023-05-01T07:27:33;12.77;;;6.35;;
66327;SDS011;53133;52.862;6.602;2023-05-01T07:29:59;10.20;;;6.15;;
66327;SDS011;53133;52.862;6.602;2023-05-01T07:32:29;13.07;;;6.32;;
66327;SDS011;53133;52.862;6.602;2023-05-01T07:34:57;15.35;;;6.18;;
66327;SDS011;53133;52.862;6.602;2023-05-01T07:37:22;11.13;;;6.03;;
66327;SDS011;53133;52.862;6.602;2023-05-01T07:39:55;10.77;;;6.57;;
66327;SDS011;53133;52.862;6.602;2023-05-01T07:42:22;12.13;;;5.78;;
66327;SDS011;53133;52.862;6.602;2023-05-01T07:44:49;12.52;;;5.90;;
66327;SDS011;53133;52.862;6.602;2023-05-01T07:47:15;11.00;;;5.95;;
66327;SDS011;53133;52.862;6.602;2023-05-01T07:49:40;13.02;;;5.82;;
66327;SDS011;53133;52.862;6.602;2023-05-01T07:52:06;8.93;;;5.93;;
66327;SDS011;53133;52.862;6.602;2023-05-01T07:54:32;12.95;;;6.50;;
66327;SDS011;53133;52.862;6.602;2023-05-01T07:56:58;9.88;;;6.05;;
66327;SDS011;53133;52.862;6.602;2023-05-01T07:59:26;12.05;;;5.95;;
66327;SDS011;53133;52.862;6.602;2023-05-01T08:01:52;11.10;;;6.00;;
66327;SDS011;53133;52.862;6.602;2023-05-01T08:04:17;8.48;;;5.63;;
66327;SDS011;53133;52.862;6.602;2023-05-01T08:06:43;11.68;;;6.18;;
66327;SDS011;53133;52.862;6.602;2023-05-01T08:09:08;9.73;;;5.63;;
66327;SDS011;53133;52.862;6.602;2023-05-01T08:11:34;9.38;;;5.88;;
66327;SDS011;53133;52.862;6.602;2023-05-01T08:14:00;9.80;;;5.68;;
66327;SDS011;53133;52.862;6.602;2023-05-01T08:16:26;10.13;;;6.25;;
66327;SDS011;53133;52.862;6.602;2023-05-01T08:18:51;9.80;;;5.60;;
66327;SDS011;53133;52.862;6.602;2023-05-01T08:21:17;11.40;;;5.70;;
66327;SDS011;53133;52.862;6.602;2023-05-01T08:23:42;11.25;;;5.80;;
66327;SDS011;53133;52.862;6.602;2023-05-01T08:26:08;10.50;;;5.55;;
66327;SDS011;53133;52.862;6.602;2023-05-01T08:28:34;11.68;;;5.75;;
66327;SDS011;53133;52.862;6.602;2023-05-01T08:31:01;11.73;;;6.10;;
66327;SDS011;53133;52.862;6.602;2023-05-01T08:33:27;10.60;;;5.70;;
66327;SDS011;53133;52.862;6.602;2023-05-01T08:35:53;10.63;;;5.43;;
66327;SDS011;53133;52.862;6.602;2023-05-01T08:38:18;9.38;;;5.78;;
66327;SDS011;53133;52.862;6.602;2023-05-01T08:40:50;12.40;;;5.45;;
66327;SDS011;53133;52.862;6.602;2023-05-01T08:43:17;8.15;;;5.60;;
66327;SDS011;53133;52.862;6.602;2023-05-01T08:45:43;7.68;;;5.72;;
66327;SDS011;53133;52.862;6.602;2023-05-01T08:48:11;10.65;;;6.18;;
66327;SDS011;53133;52.862;6.602;2023-05-01T08:50:39;11.65;;;6.03;;
66327;SDS011;53133;52.862;6.602;2023-05-01T08:53:09;9.90;;;5.50;;
66327;SDS011;53133;52.862;6.602;2023-05-01T08:55:36;10.82;;;5.10;;
66327;SDS011;53133;52.862;6.602;2023-05-01T08:58:02;8.35;;;4.88;;
66327;SDS011;53133;52.862;6.602;2023-05-01T09:00:33;11.35;;;5.68;;
66327;SDS011;53133;52.862;6.602;2023-05-01T09:03:00;8.57;;;5.65;;
66327;SDS011;53133;52.862;6.602;2023-05-01T09:05:30;9.27;;;4.95;;
66327;SDS011;53133;52.862;6.602;2023-05-01T09:07:56;13.07;;;5.30;;
66327;SDS011;53133;52.862;6.602;2023-05-01T09:10:23;6.55;;;4.32;;
66327;SDS011;53133;52.862;6.602;2023-05-01T09:12:54;9.68;;;4.50;;
66327;SDS011;53133;52.862;6.602;2023-05-01T09:15:27;8.32;;;4.72;;
66327;SDS011;53133;52.862;6.602;2023-05-01T09:17:53;9.82;;;4.50;;
66327;SDS011;53133;52.862;6.602;2023-05-01T09:20:19;10.93;;;4.50;;
66327;SDS011;53133;52.862;6.602;2023-05-01T09:22:45;7.25;;;4.10;;
66327;SDS011;53133;52.862;6.602;2023-05-01T09:25:11;7.30;;;4.00;;
66327;SDS011;53133;52.862;6.602;2023-05-01T09:27:36;10.70;;;4.60;;
66327;SDS011;53133;52.862;6.602;2023-05-01T09:30:03;9.18;;;4.38;;
66327;SDS011;53133;52.862;6.602;2023-05-01T09:32:30;11.27;;;4.80;;
66327;SDS011;53133;52.862;6.602;2023-05-01T09:37:34;9.15;;;4.57;;
66327;SDS011;53133;52.862;6.602;2023-05-01T09:40:03;8.50;;;4.30;;
66327;SDS011;53133;52.862;6.602;2023-05-01T09:42:29;12.32;;;4.07;;
66327;SDS011;53133;52.862;6.602;2023-05-01T09:45:02;8.07;;;4.28;;
66327;SDS011;53133;52.862;6.602;2023-05-01T09:47:29;8.65;;;4.63;;
66327;SDS011;53133;52.862;6.602;2023-05-01T09:49:55;8.52;;;3.97;;
66327;SDS011;53133;52.862;6.602;2023-05-01T09:52:30;7.95;;;3.58;;
66327;SDS011;53133;52.862;6.602;2023-05-01T09:55:12;9.30;;;3.95;;
66327;SDS011;53133;52.862;6.602;2023-05-01T09:57:42;9.93;;;4.55;;
66327;SDS011;53133;52.862;6.602;2023-05-01T10:00:09;9.43;;;3.78;;
66327;SDS011;53133;52.862;6.602;2023-05-01T10:02:38;6.03;;;3.22;;
66327;SDS011;53133;52.862;6.602;2023-05-01T10:05:05;8.82;;;2.72;;
66327;SDS011;53133;52.862;6.602;2023-05-01T10:07:31;7.05;;;3.70;;
66327;SDS011;53133;52.862;6.602;2023-05-01T10:09:58;5.55;;;3.13;;
66327;SDS011;53133;52.862;6.602;2023-05-01T10:12:39;10.73;;;4.30;;
66327;SDS011;53133;52.862;6.602;2023-05-01T10:15:05;7.70;;;3.63;;
66327;SDS011;53133;52.862;6.602;2023-05-01T10:17:31;6.95;;;3.53;;
66327;SDS011;53133;52.862;6.602;2023-05-01T10:19:58;6.03;;;3.80;;
66327;SDS011;53133;52.862;6.602;2023-05-01T10:22:24;7.68;;;4.05;;
66327;SDS011;53133;52.862;6.602;2023-05-01T10:24:50;8.40;;;3.63;;
66327;SDS011;53133;52.862;6.602;2023-05-01T10:27:16;6.88;;;3.90;;
66327;SDS011;53133;52.862;6.602;2023-05-01T10:29:43;7.88;;;3.60;;
66327;SDS011;53133;52.862;6.602;2023-05-01T10:32:11;10.20;;;3.83;;
66327;SDS011;53133;52.862;6.602;2023-05-01T10:34:39;6.88;;;3.28;;
66327;SDS011;53133;52.862;6.602;2023-05-01T10:37:14;7.25;;;3.42;;
66327;SDS011;53133;52.862;6.602;2023-05-01T10:39:43;5.75;;;3.40;;
66327;SDS011;53133;52.862;6.602;2023-05-01T10:42:09;6.38;;;3.08;;
66327;SDS011;53133;52.862;6.602;2023-05-01T10:44:38;7.47;;;3.30;;
66327;SDS011;53133;52.862;6.602;2023-05-01T10:50:01;3.53;;;2.35;;
66327;SDS011;53133;52.862;6.602;2023-05-01T10:52:28;3.20;;;1.77;;
66327;SDS011;53133;52.862;6.602;2023-05-01T10:55:21;5.55;;;2.33;;
66327;SDS011;53133;52.862;6.602;2023-05-01T10:57:59;3.72;;;2.17;;
66327;SDS011;53133;52.862;6.602;2023-05-01T11:00:24;4.97;;;2.67;;
66327;SDS011;53133;52.862;6.602;2023-05-01T11:02:50;6.82;;;2.85;;
66327;SDS011;53133;52.862;6.602;2023-05-01T11:05:15;4.93;;;2.90;;
66327;SDS011;53133;52.862;6.602;2023-05-01T11:07:41;5.18;;;2.75;;
66327;SDS011;53133;52.862;6.602;2023-05-01T11:10:25;5.65;;;2.92;;
66327;SDS011;53133;52.862;6.602;2023-05-01T11:12:51;4.90;;;2.67;;
66327;SDS011;53133;52.862;6.602;2023-05-01T11:15:26;4.25;;;2.30;;
66327;SDS011;53133;52.862;6.602;2023-05-01T11:17:56;7.45;;;2.58;;
66327;SDS011;53133;52.862;6.602;2023-05-01T11:22:52;5.43;;;2.33;;
66327;SDS011;53133;52.862;6.602;2023-05-01T11:27:48;2.88;;;2.15;;
66327;SDS011;53133;52.862;6.602;2023-05-01T11:30:19;4.85;;;2.20;;
66327;SDS011;53133;52.862;6.602;2023-05-01T11:32:46;3.85;;;1.88;;
66327;SDS011;53133;52.862;6.602;2023-05-01T11:35:16;3.22;;;1.58;;
66327;SDS011;53133;52.862;6.602;2023-05-01T11:37:42;6.50;;;3.20;;
66327;SDS011;53133;52.862;6.602;2023-05-01T11:40:17;4.18;;;2.90;;
66327;SDS011;53133;52.862;6.602;2023-05-01T11:43:03;5.20;;;2.83;;
66327;SDS011;53133;52.862;6.602;2023-05-01T11:45:33;3.60;;;2.20;;
66327;SDS011;53133;52.862;6.602;2023-05-01T11:48:00;5.15;;;2.83;;
66327;SDS011;53133;52.862;6.602;2023-05-01T11:50:32;4.80;;;2.42;;
66327;SDS011;53133;52.862;6.602;2023-05-01T11:53:12;3.05;;;1.77;;
66327;SDS011;53133;52.862;6.602;2023-05-01T11:55:42;7.00;;;2.30;;
66327;SDS011;53133;52.862;6.602;2023-05-01T11:58:09;3.10;;;1.98;;
66327;SDS011;53133;52.862;6.602;2023-05-01T12:00:39;3.63;;;1.80;;
66327;SDS011;53133;52.862;6.602;2023-05-01T12:05:36;3.35;;;1.73;;
66327;SDS011;53133;52.862;6.602;2023-05-01T12:10:39;2.95;;;1.88;;
66327;SDS011;53133;52.862;6.602;2023-05-01T12:13:07;2.42;;;1.67;;
66327;SDS011;53133;52.862;6.602;2023-05-01T12:15:34;4.10;;;1.75;;
66327;SDS011;53133;52.862;6.602;2023-05-01T12:18:02;6.40;;;1.80;;
66327;SDS011;53133;52.862;6.602;2023-05-01T12:23:00;3.88;;;1.80;;
66327;SDS011;53133;52.862;6.602;2023-05-01T12:25:29;4.53;;;1.67;;
66327;SDS011;53133;52.862;6.602;2023-05-01T12:27:56;3.53;;;1.77;;
66327;SDS011;53133;52.862;6.602;2023-05-01T12:30:25;4.07;;;1.80;;
66327;SDS011;53133;52.862;6.602;2023-05-01T12:32:51;3.78;;;1.60;;
66327;SDS011;53133;52.862;6.602;2023-05-01T12:35:17;2.42;;;1.70;;
66327;SDS011;53133;52.862;6.602;2023-05-01T12:37:43;5.90;;;1.55;;
66327;SDS011;53133;52.862;6.602;2023-05-01T12:40:12;6.70;;;1.63;;
66327;SDS011;53133;52.862;6.602;2023-05-01T12:42:39;2.08;;;1.50;;
66327;SDS011;53133;52.862;6.602;2023-05-01T12:45:05;2.95;;;1.70;;
66327;SDS011;53133;52.862;6.602;2023-05-01T12:47:36;2.72;;;1.80;;
66327;SDS011;53133;52.862;6.602;2023-05-01T12:50:03;2.92;;;1.75;;
66327;SDS011;53133;52.862;6.602;2023-05-01T12:52:29;4.18;;;1.83;;
66327;SDS011;53133;52.862;6.602;2023-05-01T12:55:01;3.03;;;1.80;;
66327;SDS011;53133;52.862;6.602;2023-05-01T12:57:28;2.95;;;1.40;;
66327;SDS011;53133;52.862;6.602;2023-05-01T13:00:02;3.58;;;1.70;;
66327;SDS011;53133;52.862;6.602;2023-05-01T13:02:31;2.83;;;1.52;;
66327;SDS011;53133;52.862;6.602;2023-05-01T13:05:30;3.33;;;1.73;;
66327;SDS011;53133;52.862;6.602;2023-05-01T13:07:49;3.42;;;2.17;;
66327;SDS011;53133;52.862;6.602;2023-05-01T13:10:27;3.80;;;1.90;;
66327;SDS011;53133;52.862;6.602;2023-05-01T13:12:54;5.25;;;2.03;;
66327;SDS011;53133;52.862;6.602;2023-05-01T13:15:20;4.72;;;2.15;;
66327;SDS011;53133;52.862;6.602;2023-05-01T13:17:46;3.78;;;2.47;;
66327;SDS011;53133;52.862;6.602;2023-05-01T13:20:12;5.13;;;2.30;;
66327;SDS011;53133;52.862;6.602;2023-05-01T13:22:39;2.97;;;1.85;;
66327;SDS011;53133;52.862;6.602;2023-05-01T13:25:16;5.13;;;2.40;;
66327;SDS011;53133;52.862;6.602;2023-05-01T13:27:48;3.95;;;2.33;;
66327;SDS011;53133;52.862;6.602;2023-05-01T13:30:15;3.20;;;2.10;;
66327;SDS011;53133;52.862;6.602;2023-05-01T13:32:43;4.05;;;1.83;;
66327;SDS011;53133;52.862;6.602;2023-05-01T13:35:10;4.50;;;2.00;;
66327;SDS011;53133;52.862;6.602;2023-05-01T13:37:36;5.53;;;2.28;;
66327;SDS011;53133;52.862;6.602;2023-05-01T13:40:04;5.30;;;2.20;;
66327;SDS011;53133;52.862;6.602;2023-05-01T13:42:30;2.90;;;1.77;;
66327;SDS011;53133;52.862;6.602;2023-05-01T13:44:56;4.93;;;1.90;;
66327;SDS011;53133;52.862;6.602;2023-05-01T13:47:22;2.38;;;1.80;;
66327;SDS011;53133;52.862;6.602;2023-05-01T13:49:52;2.70;;;1.70;;
66327;SDS011;53133;52.862;6.602;2023-05-01T13:52:18;4.07;;;1.95;;
66327;SDS011;53133;52.862;6.602;2023-05-01T13:54:45;4.22;;;1.80;;
66327;SDS011;53133;52.862;6.602;2023-05-01T13:57:15;5.03;;;1.95;;
66327;SDS011;53133;52.862;6.602;2023-05-01T13:59:41;4.13;;;1.88;;
66327;SDS011;53133;52.862;6.602;2023-05-01T14:02:25;3.15;;;1.80;;
66327;SDS011;53133;52.862;6.602;2023-05-01T14:04:52;5.05;;;1.60;;
66327;SDS011;53133;52.862;6.602;2023-05-01T14:07:22;2.70;;;1.50;;
66327;SDS011;53133;52.862;6.602;2023-05-01T14:09:51;2.80;;;1.77;;
66327;SDS011;53133;52.862;6.602;2023-05-01T14:12:23;2.55;;;1.80;;
66327;SDS011;53133;52.862;6.602;2023-05-01T14:14:52;4.18;;;1.70;;
66327;SDS011;53133;52.862;6.602;2023-05-01T14:17:17;3.47;;;1.83;;
66327;SDS011;53133;52.862;6.602;2023-05-01T14:19:43;4.57;;;2.38;;
66327;SDS011;53133;52.862;6.602;2023-05-01T14:22:09;4.15;;;2.63;;
66327;SDS011;53133;52.862;6.602;2023-05-01T14:24:35;3.53;;;2.63;;
66327;SDS011;53133;52.862;6.602;2023-05-01T14:27:05;3.25;;;2.60;;
66327;SDS011;53133;52.862;6.602;2023-05-01T14:29:33;3.70;;;2.58;;
66327;SDS011;53133;52.862;6.602;2023-05-01T14:32:02;4.70;;;2.50;;
66327;SDS011;53133;52.862;6.602;2023-05-01T14:34:29;4.13;;;2.55;;
66327;SDS011;53133;52.862;6.602;2023-05-01T14:36:57;3.10;;;2.30;;
66327;SDS011;53133;52.862;6.602;2023-05-01T14:39:24;5.78;;;2.80;;
66327;SDS011;53133;52.862;6.602;2023-05-01T14:41:51;10.00;;;2.80;;
66327;SDS011;53133;52.862;6.602;2023-05-01T14:44:20;4.78;;;2.88;;
66327;SDS011;53133;52.862;6.602;2023-05-01T14:46:50;8.57;;;3.95;;
66327;SDS011;53133;52.862;6.602;2023-05-01T14:49:16;6.57;;;4.43;;
66327;SDS011;53133;52.862;6.602;2023-05-01T14:51:47;8.20;;;4.20;;
66327;SDS011;53133;52.862;6.602;2023-05-01T14:54:13;12.00;;;5.45;;
66327;SDS011;53133;52.862;6.602;2023-05-01T14:56:40;5.68;;;3.78;;
66327;SDS011;53133;52.862;6.602;2023-05-01T14:59:07;11.05;;;3.85;;
66327;SDS011;53133;52.862;6.602;2023-05-01T15:01:32;6.60;;;4.30;;
66327;SDS011;53133;52.862;6.602;2023-05-01T15:03:58;7.88;;;4.22;;
66327;SDS011;53133;52.862;6.602;2023-05-01T15:06:24;7.53;;;4.00;;
66327;SDS011;53133;52.862;6.602;2023-05-01T15:08:50;8.88;;;4.20;;
66327;SDS011;53133;52.862;6.602;2023-05-01T15:11:16;7.30;;;3.80;;